^^
Station Historical Data
Daily Summary for July 5, 2017 Units:  English    Metric   Both
« Previous Day
Next Day »
Daily Weekly Monthly Yearly Custom
  High: Low: Average:
Temperature: 84.6 °F 62.1 °F 74.1 °F
Dew Point: 63.3 °F 54.9 °F 58.9 °F
Humidity: 85% 40% 61%
Wind Speed: 5.0mph 0.0mph 0.8mph
Wind Gust: 12.0mph - -
Wind- - SSW
Pressure: 30.22 in 30.12 in -
Precipitation: 0.00 in    
Historical Graphs
 
 
Tabular Data for July 5, 2017
Time Temperature Dew Point Pressure Wind Wind Speed Wind Gust Humidity Rainfall Rate (Hourly) Conditions
00:00 69.0 °F 59.2 °F 30.12 in Calm     71% 0.00 in CLR
00:15 68.6 °F 58.8 °F 30.12 in Calm     71% 0.00 in CLR
00:30 69.0 °F 59.6 °F 30.12 in Calm     72% 0.00 in CLR
00:45 68.2 °F 60.0 °F 30.12 in Calm     75% 0.00 in CLR
01:00 67.3 °F 60.2 °F 30.12 in Calm   1.0 mph 78% 0.00 in CLR
01:15 67.4 °F 59.6 °F 30.12 in Calm   1.0 mph 76% 0.00 in CLR
01:30 66.8 °F 59.7 °F 30.12 in Calm     78% 0.00 in CLR
01:45 67.0 °F 59.2 °F 30.13 in Calm     76% 0.00 in CLR
02:00 67.7 °F 59.1 °F 30.12 in Calm   1.0 mph 74% 0.00 in CLR
02:15 66.9 °F 58.7 °F 30.12 in Calm     75% 0.00 in CLR
02:30 65.8 °F 59.1 °F 30.12 in Calm     79% 0.00 in CLR
02:45 64.9 °F 59.6 °F 30.13 in Calm     83% 0.00 in CLR
03:00 64.9 °F 57.9 °F 30.13 in Calm     78% 0.00 in CLR
03:15 65.4 °F 57.3 °F 30.13 in Calm     75% 0.00 in CLR
03:30 64.2 °F 58.9 °F 30.14 in Calm     83% 0.00 in CLR
03:45 63.2 °F 58.6 °F 30.14 in Calm     85% 0.00 in CLR
04:00 63.6 °F 58.3 °F 30.14 in Calm   1.0 mph 83% 0.00 in CLR
04:15 64.7 °F 58.0 °F 30.14 in Calm     79% 0.00 in CLR
04:30 64.8 °F 57.8 °F 30.14 in Calm     78% 0.00 in CLR
04:45 64.3 °F 57.6 °F 30.14 in Calm     79% 0.00 in CLR
05:00 64.3 °F 56.9 °F 30.15 in Calm     77% 0.00 in CLR
05:15 63.3 °F 57.0 °F 30.15 in Calm     80% 0.00 in CLR
05:30 63.0 °F 57.1 °F 30.15 in Calm   1.0 mph 81% 0.00 in CLR
05:45 62.6 °F 57.0 °F 30.15 in Calm   1.0 mph 82% 0.00 in CLR
06:00 62.1 °F 57.2 °F 30.16 in Calm     84% 0.00 in CLR
06:15 62.2 °F 57.6 °F 30.16 in Calm     85% 0.00 in CLR
06:30 62.5 °F 57.9 °F 30.17 in Calm     85% 0.00 in CLR
06:45 63.5 °F 57.9 °F 30.17 in Calm     82% 0.00 in CLR
07:00 64.5 °F 58.9 °F 30.18 in Calm     82% 0.00 in CLR
07:15 65.0 °F 59.0 °F 30.18 in Calm   1.0 mph 81% 0.00 in CLR
07:30 65.9 °F 59.6 °F 30.19 in Calm     80% 0.00 in CLR
07:45 68.0 °F 60.5 °F 30.19 in Calm   1.0 mph 77% 0.00 in CLR
08:00 71.3 °F 61.0 °F 30.20 in Calm   1.0 mph 70% 0.00 in CLR
08:15 73.2 °F 59.9 °F 30.20 in Calm   2.0 mph 63% 0.00 in CLR
08:30 75.1 °F 59.3 °F 30.20 in Calm   4.0 mph 58% 0.00 in CLR
08:45 76.2 °F 58.3 °F 30.21 in SSE 1.0 mph 2.0 mph 54% 0.00 in CLR
09:00 76.9 °F 59.0 °F 30.22 in Calm   3.0 mph 54% 0.00 in CLR
09:15 78.3 °F 59.2 °F 30.22 in SE 1.0 mph 3.0 mph 52% 0.00 in CLR
09:30 78.4 °F 60.4 °F 30.21 in East 1.0 mph 3.0 mph 54% 0.00 in CLR
09:45 78.5 °F 60.5 °F 30.21 in NW 1.0 mph 3.0 mph 54% 0.00 in CLR
10:00 78.0 °F 60.0 °F 30.21 in NE 1.0 mph 6.0 mph 54% 0.00 in CLR
10:15 80.1 °F 61.9 °F 30.21 in Calm   4.0 mph 54% 0.00 in CLR
10:30 80.8 °F 62.0 °F 30.21 in West 2.0 mph 5.0 mph 53% 0.00 in CLR
10:45 80.0 °F 61.9 °F 30.21 in NW 2.0 mph 6.0 mph 54% 0.00 in CLR
11:00 80.0 °F 61.9 °F 30.21 in NW 1.0 mph 6.0 mph 54% 0.00 in CLR
11:15 80.6 °F 62.4 °F 30.21 in NW 1.0 mph 6.0 mph 54% 0.00 in CLR
11:30 81.2 °F 61.3 °F 30.21 in East 2.0 mph 6.0 mph 51% 0.00 in CLR
11:45 81.5 °F 58.7 °F 30.22 in NW 3.0 mph 9.0 mph 46% 0.00 in CLR
12:00 82.4 °F 59.0 °F 30.21 in WSW 2.0 mph 7.0 mph 45% 0.00 in CLR
12:15 82.8 °F 59.9 °F 30.21 in South 3.0 mph 8.0 mph 46% 0.00 in FEW
12:30 83.2 °F 59.7 °F 30.21 in NW 1.0 mph 7.0 mph 45% 0.00 in FEW
12:45 83.3 °F 59.7 °F 30.20 in NW 2.0 mph 6.0 mph 45% 0.00 in FEW
13:00 83.6 °F 58.7 °F 30.20 in SSE 2.0 mph 8.0 mph 43% 0.00 in FEW
13:15 83.7 °F 58.9 °F 30.20 in West 1.0 mph 7.0 mph 43% 0.00 in FEW
13:30 84.6 °F 58.3 °F 30.19 in SW 1.0 mph 5.0 mph 41% 0.00 in FEW
13:45 84.6 °F 59.0 °F 30.19 in SE 2.0 mph 6.0 mph 42% 0.00 in FEW
14:00 84.6 °F 59.6 °F 30.19 in SW 2.0 mph 6.0 mph 43% 0.00 in FEW
14:15 84.0 °F 61.0 °F 30.19 in North 3.0 mph 6.0 mph 46% 0.00 in SCT
14:30 83.3 °F 63.3 °F 30.19 in SSE 3.0 mph 9.0 mph 51% 0.00 in SCT
14:45 82.7 °F 62.7 °F 30.19 in SSW 5.0 mph 9.0 mph 51% 0.00 in SCT
15:00 82.8 °F 62.3 °F 30.19 in SW 3.0 mph 12.0 mph 50% 0.00 in SCT
15:15 83.7 °F 60.8 °F 30.19 in SSE 1.0 mph 7.0 mph 46% 0.00 in SCT
15:30 84.5 °F 57.5 °F 30.19 in South 2.0 mph 7.0 mph 40% 0.00 in SCT
15:45 83.3 °F 62.2 °F 30.18 in SW 1.0 mph 10.0 mph 49% 0.00 in SCT
16:00 82.0 °F 61.5 °F 30.18 in WSW 2.0 mph 9.0 mph 50% 0.00 in SCT
16:15 82.3 °F 61.8 °F 30.18 in SW 1.0 mph 6.0 mph 50% 0.00 in SCT
16:30 82.8 °F 61.1 °F 30.17 in WSW 2.0 mph 7.0 mph 48% 0.00 in SCT
16:45 82.5 °F 61.4 °F 30.18 in Calm   5.0 mph 49% 0.00 in SCT
17:00 82.5 °F 60.2 °F 30.17 in SSW 2.0 mph 10.0 mph 47% 0.00 in SCT
17:15 82.5 °F 60.9 °F 30.17 in SSW 2.0 mph 12.0 mph 48% 0.00 in SCT
17:30 82.4 °F 60.1 °F 30.17 in South 1.0 mph 9.0 mph 47% 0.00 in SCT
17:45 81.8 °F 58.4 °F 30.17 in SW 2.0 mph 10.0 mph 45% 0.00 in SCT
18:00 81.8 °F 58.4 °F 30.17 in SSW 1.0 mph 12.0 mph 45% 0.00 in SCT
18:15 81.6 °F 57.6 °F 30.17 in SSW 3.0 mph 8.0 mph 44% 0.00 in FEW
18:30 81.0 °F 57.7 °F 30.18 in WSW 1.0 mph 7.0 mph 45% 0.00 in FEW
18:45 80.6 °F 57.9 °F 30.18 in SW 1.0 mph 5.0 mph 46% 0.00 in FEW
19:00 79.7 °F 57.7 °F 30.18 in SSW 1.0 mph 8.0 mph 47% 0.00 in FEW
19:15 79.0 °F 57.0 °F 30.18 in SW 5.0 mph 7.0 mph 47% 0.00 in CLR
19:30 78.2 °F 57.5 °F 30.18 in SSW 5.0 mph 8.0 mph 49% 0.00 in CLR
19:45 77.6 °F 57.5 °F 30.18 in SW 1.0 mph 6.0 mph 50% 0.00 in CLR
20:00 76.5 °F 56.5 °F 30.18 in SW 1.0 mph 4.0 mph 50% 0.00 in CLR
20:15 74.8 °F 56.0 °F 30.18 in Calm   2.0 mph 52% 0.00 in CLR
20:30 73.6 °F 55.4 °F 30.18 in Calm   4.0 mph 53% 0.00 in CLR
20:45 72.5 °F 54.9 °F 30.19 in Calm   1.0 mph 54% 0.00 in CLR
21:00 71.5 °F 55.5 °F 30.19 in Calm     57% 0.00 in CLR
21:15 70.6 °F 55.6 °F 30.19 in Calm   1.0 mph 59% 0.00 in CLR
21:30 70.1 °F 55.6 °F 30.20 in Calm   1.0 mph 60% 0.00 in CLR
21:45 70.0 °F 55.5 °F 30.21 in Calm   1.0 mph 60% 0.00 in CLR
22:00 69.9 °F 56.3 °F 30.21 in Calm   2.0 mph 62% 0.00 in CLR
22:15 69.6 °F 56.4 °F 30.21 in Calm   1.0 mph 63% 0.00 in CLR
22:30 69.3 °F 56.6 °F 30.21 in Calm   1.0 mph 64% 0.00 in CLR
22:45 69.7 °F 57.0 °F 30.22 in Calm   1.0 mph 64% 0.00 in CLR
23:00 69.8 °F 57.1 °F 30.21 in Calm   1.0 mph 64% 0.00 in CLR
23:15 69.5 °F 57.6 °F 30.20 in Calm   1.0 mph 66% 0.00 in SCT
23:30 69.4 °F 58.4 °F 30.20 in Calm   1.0 mph 68% 0.00 in SCT
23:45 69.4 °F 58.8 °F 30.20 in Calm   1.0 mph 69% 0.00 in SCT
TarryTown NY Weather
Compliments of Weather Underground - 1.5 mb